Time;durP1;ratioP1;P1;durP2;ratioP2;P2;SDS_P1;SDS_P2;PMS_P1;PMS_P2;Temp;Humidity;BMP_temperature;BMP_pressure;BME280_temperature;BME280_humidity;BME280_pressure;Samples;Min_cycle;Max_cycle;Signal;HPM_P1;HPM_P2
2021/09/24 02:42:12;;;;;;;5.80;5.30;;;11.60;99.90;;;;;;6036961;23;20484;-84
2021/09/24 02:48:30;;;;;;;8.40;6.83;;;11.60;99.90;;;;;;5918325;24;20418;-83
2021/09/24 02:54:58;;;;;;;7.00;6.30;;;11.60;99.90;;;;;;6066585;23;20408;-84
2021/09/24 02:58:09;;;;;;;;;;;;;;;;;;;;;
2021/09/24 03:01:41;;;;;;;;;;;;;;;;;;;;;
2021/09/24 03:07:59;;;;;;;6.30;5.80;;;11.70;99.90;;;;;;5949728;24;20404;-81
2021/09/24 03:14:39;;;;;;;6.80;6.20;;;11.70;99.90;;;;;;6061968;23;20938;-82
2021/09/24 03:17:34;;;;;;;;;;;;;;;;;;;;;
2021/09/24 03:20:28;;;;;;;7.20;5.97;;;11.70;99.90;;;;;;5888858;24;20484;-82
2021/09/24 03:22:55;;;;;;;6.50;5.90;;;11.70;99.90;;;;;;6002360;23;20430;-82
2021/09/24 03:25:22;;;;;;;7.17;6.47;;;11.70;99.90;;;;;;6077961;23;20421;-82
2021/09/24 03:27:50;;;;;;;7.23;6.53;;;11.50;99.90;;;;;;6135498;23;20417;-82
2021/09/24 03:30:17;;;;;;;8.80;7.13;;;11.50;99.90;;;;;;6137158;23;20430;-82
2021/09/24 03:32:45;;;;;;;7.77;6.53;;;11.60;99.90;;;;;;6140988;23;20429;-82
2021/09/24 03:35:13;;;;;;;7.20;6.53;;;11.60;99.90;;;;;;6139804;23;20411;-82
2021/09/24 03:37:40;;;;;;;7.53;6.83;;;11.60;99.90;;;;;;6134766;23;20735;-82
2021/09/24 03:40:08;;;;;;;7.13;6.53;;;11.60;99.90;;;;;;6134860;23;20461;-83
2021/09/24 03:42:35;;;;;;;9.30;6.83;;;11.60;99.90;;;;;;6135431;23;20399;-82
2021/09/24 03:45:02;;;;;;;8.77;7.87;;;11.60;99.90;;;;;;6135078;23;20421;-82
2021/09/24 03:47:28;;;;;;;8.20;7.53;;;11.60;99.90;;;;;;6134250;23;20419;-83
2021/09/24 03:49:56;;;;;;;8.70;7.40;;;11.60;99.90;;;;;;6134656;23;20749;-82
2021/09/24 03:52:23;;;;;;;8.67;7.83;;;11.60;99.90;;;;;;6135476;23;20429;-82
2021/09/24 03:54:50;;;;;;;8.80;8.00;;;11.60;99.90;;;;;;6134777;23;20425;-83
2021/09/24 03:57:17;;;;;;;9.60;8.63;;;11.60;99.90;;;;;;6135235;23;21045;-82
2021/09/24 03:59:43;;;;;;;9.60;8.60;;;11.50;99.90;;;;;;6134694;23;20408;-82
2021/09/24 04:02:10;;;;;;;9.17;8.27;;;11.30;99.90;;;;;;6134640;23;20415;-82
2021/09/24 04:04:37;;;;;;;9.57;7.90;;;11.20;99.90;;;;;;6134747;23;20411;-82
2021/09/24 04:07:06;;;;;;;9.83;8.00;;;11.20;99.90;;;;;;6134519;23;20761;-82
2021/09/24 04:09:32;;;;;;;9.97;8.30;;;11.10;99.90;;;;;;6134964;23;20450;-82
2021/09/24 04:11:59;;;;;;;12.73;8.13;;;11.00;99.90;;;;;;6133993;23;20755;-82
2021/09/24 04:14:26;;;;;;;7.87;7.07;;;11.00;99.90;;;;;;6134263;23;20894;-82
2021/09/24 04:16:53;;;;;;;9.30;8.40;;;11.00;99.90;;;;;;6134937;23;20418;-82
2021/09/24 04:19:21;;;;;;;9.43;8.43;;;11.00;99.90;;;;;;6136000;23;20421;-82
2021/09/24 04:21:47;;;;;;;9.07;8.17;;;11.10;99.90;;;;;;6135608;23;20441;-82
2021/09/24 04:24:16;;;;;;;9.03;7.93;;;11.20;99.90;;;;;;6136289;23;20415;-82
2021/09/24 04:26:44;;;;;;;12.10;8.83;;;11.20;99.90;;;;;;6134848;23;20805;-82
2021/09/24 04:29:11;;;;;;;9.00;7.77;;;11.10;99.90;;;;;;6135513;23;20446;-82
2021/09/24 04:31:37;;;;;;;8.73;7.83;;;11.20;99.90;;;;;;6134887;23;20457;-82
2021/09/24 04:34:04;;;;;;;9.03;6.80;;;11.20;99.90;;;;;;6134680;23;20414;-82
2021/09/24 04:36:31;;;;;;;9.17;8.03;;;11.20;99.90;;;;;;6134886;23;20415;-82
2021/09/24 04:38:57;;;;;;;8.00;7.20;;;11.10;99.90;;;;;;6134715;23;20407;-82
2021/09/24 04:41:25;;;;;;;7.10;6.40;;;11.20;99.90;;;;;;6134455;23;20445;-82
2021/09/24 04:43:52;;;;;;;6.93;6.23;;;11.20;99.90;;;;;;6135171;23;20419;-82
2021/09/24 04:46:19;;;;;;;8.40;7.60;;;11.20;99.90;;;;;;6132900;23;20413;-82
2021/09/24 04:48:46;;;;;;;7.70;6.30;;;11.30;99.90;;;;;;6135183;23;21095;-82
2021/09/24 04:51:13;;;;;;;7.83;6.10;;;11.30;99.90;;;;;;6135046;23;20439;-81
2021/09/24 04:53:40;;;;;;;8.80;8.00;;;11.30;99.90;;;;;;6135928;23;21001;-82
2021/09/24 04:56:07;;;;;;;8.63;7.83;;;11.30;99.90;;;;;;6134648;23;20425;-82
2021/09/24 04:58:35;;;;;;;8.17;7.23;;;11.20;99.90;;;;;;6135512;23;20859;-82
2021/09/24 05:01:02;;;;;;;8.77;7.80;;;11.30;99.90;;;;;;6135606;23;20439;-82
2021/09/24 05:03:28;;;;;;;10.20;7.80;;;11.30;99.90;;;;;;6135602;23;20396;-82
2021/09/24 05:05:55;;;;;;;10.63;8.37;;;11.30;99.90;;;;;;6135271;23;20498;-82
2021/09/24 05:08:22;;;;;;;9.50;8.03;;;11.20;99.90;;;;;;6134236;23;20404;-81
2021/09/24 05:10:49;;;;;;;8.60;7.63;;;11.20;99.90;;;;;;6134986;23;21049;-82
2021/09/24 05:13:15;;;;;;;8.00;6.57;;;11.30;99.90;;;;;;6135247;23;20422;-82
2021/09/24 05:15:44;;;;;;;8.57;7.87;;;11.20;99.90;;;;;;6134331;23;20419;-82
2021/09/24 05:18:10;;;;;;;9.23;8.33;;;11.20;99.90;;;;;;6134805;23;20415;-82
2021/09/24 05:20:37;;;;;;;9.70;8.00;;;11.30;99.90;;;;;;6134954;23;20436;-82
2021/09/24 05:23:04;;;;;;;9.33;7.77;;;11.20;99.90;;;;;;6135019;23;20453;-82
2021/09/24 05:25:31;;;;;;;9.63;8.73;;;11.20;99.90;;;;;;6136347;23;20412;-82
2021/09/24 05:27:58;;;;;;;8.63;7.83;;;11.30;99.90;;;;;;6136910;23;20425;-82
2021/09/24 05:30:24;;;;;;;7.90;7.30;;;11.40;99.90;;;;;;6138024;23;20797;-82
2021/09/24 05:32:53;;;;;;;8.50;7.53;;;11.40;99.90;;;;;;6136405;23;20418;-82
2021/09/24 05:35:20;;;;;;;10.93;9.17;;;11.40;99.90;;;;;;6139705;23;20509;-81
2021/09/24 05:37:47;;;;;;;9.50;8.50;;;11.50;99.90;;;;;;6137134;23;20415;-82
2021/09/24 05:40:14;;;;;;;7.00;6.23;;;11.50;99.90;;;;;;6136998;23;20437;-82
2021/09/24 05:42:41;;;;;;;8.77;7.33;;;11.60;99.90;;;;;;6138262;23;20410;-82
2021/09/24 05:45:11;;;;;;;8.63;7.73;;;11.60;99.90;;;;;;6137754;23;20481;-82
2021/09/24 05:47:38;;;;;;;8.40;7.50;;;11.60;99.90;;;;;;6140774;23;20411;-82
2021/09/24 05:50:12;;;;;;;9.20;8.20;;;11.60;99.90;;;;;;6139418;23;20457;-81
2021/09/24 05:52:40;;;;;;;9.63;8.03;;;11.50;99.90;;;;;;6142070;23;20402;-82
2021/09/24 05:55:08;;;;;;;10.63;9.63;;;11.40;99.90;;;;;;6140858;23;20414;-82
2021/09/24 05:57:35;;;;;;;11.30;8.50;;;11.60;99.90;;;;;;6139059;23;20411;-81
2021/09/24 06:00:02;;;;;;;9.23;7.70;;;11.60;99.90;;;;;;6138429;23;20417;-83
2021/09/24 06:02:29;;;;;;;9.90;8.90;;;11.70;99.90;;;;;;6137748;23;20418;-83
2021/09/24 06:04:56;;;;;;;8.67;7.77;;;11.80;99.90;;;;;;6134557;23;20433;-83
2021/09/24 06:07:24;;;;;;;9.30;8.40;;;11.80;99.90;;;;;;6134202;23;20412;-84
2021/09/24 06:09:50;;;;;;;8.60;7.30;;;11.90;99.90;;;;;;6135888;23;20454;-83
2021/09/24 06:12:17;;;;;;;9.13;7.60;;;12.10;99.90;;;;;;6135162;23;20412;-83
2021/09/24 06:14:44;;;;;;;8.97;7.37;;;12.20;99.90;;;;;;6135434;23;20891;-83
2021/09/24 06:17:11;;;;;;;9.77;7.00;;;12.30;99.90;;;;;;6138353;23;20403;-83
2021/09/24 06:19:38;;;;;;;7.50;6.70;;;12.40;99.90;;;;;;6142278;23;20459;-84
2021/09/24 06:22:05;;;;;;;8.40;7.60;;;12.50;99.90;;;;;;6138327;23;20435;-83
2021/09/24 06:24:33;;;;;;;9.43;7.50;;;12.60;99.90;;;;;;6132065;23;20498;-82
2021/09/24 06:27:00;;;;;;;9.17;7.40;;;12.70;99.90;;;;;;6132673;23;20415;-83
2021/09/24 06:29:27;;;;;;;11.50;7.90;;;12.80;99.90;;;;;;6131391;23;20965;-83
2021/09/24 06:31:54;;;;;;;7.93;7.03;;;12.80;99.90;;;;;;6131670;23;20941;-82
2021/09/24 06:34:20;;;;;;;8.40;7.43;;;13.00;99.90;;;;;;6128806;23;20407;-83
2021/09/24 06:37:01;;;;;;;6.90;6.30;;;13.10;99.90;;;;;;6129240;23;20418;-80
2021/09/24 06:39:28;;;;;;;7.50;6.70;;;13.10;99.90;;;;;;6129604;23;20859;-82
2021/09/24 06:41:56;;;;;;;8.57;7.07;;;13.30;99.90;;;;;;6128562;23;20443;-82
2021/09/24 06:44:23;;;;;;;9.33;7.10;;;13.40;99.90;;;;;;6129618;23;20873;-82
2021/09/24 06:46:50;;;;;;;8.43;7.57;;;13.50;99.90;;;;;;6129170;23;20422;-83
2021/09/24 06:49:16;;;;;;;7.60;6.90;;;13.50;99.90;;;;;;6128603;23;20419;-82
2021/09/24 06:51:43;;;;;;;6.43;5.83;;;13.60;99.90;;;;;;6129309;23;20454;-82
2021/09/24 06:54:10;;;;;;;7.50;6.20;;;13.60;99.90;;;;;;6139827;23;20422;-82
2021/09/24 06:56:37;;;;;;;7.10;5.80;;;13.70;99.90;;;;;;6140974;23;20418;-83
2021/09/24 06:59:05;;;;;;;6.63;6.00;;;13.80;99.90;;;;;;6140598;23;20410;-81
2021/09/24 07:01:32;;;;;;;6.30;5.77;;;13.90;99.90;;;;;;6142674;23;20432;-82
2021/09/24 07:03:58;;;;;;;6.37;5.77;;;14.00;99.90;;;;;;6143117;23;20485;-82
2021/09/24 07:06:25;;;;;;;6.50;6.00;;;14.10;99.90;;;;;;6142946;23;20426;-82
2021/09/24 07:08:52;;;;;;;8.63;7.27;;;14.20;99.90;;;;;;6142485;23;20422;-83
2021/09/24 07:11:19;;;;;;;6.97;6.07;;;14.40;99.90;;;;;;6142918;23;20452;-82
2021/09/24 07:13:46;;;;;;;7.40;6.70;;;14.50;99.90;;;;;;6143864;23;20414;-83
2021/09/24 07:16:14;;;;;;;7.17;6.47;;;14.50;99.90;;;;;;6145565;23;20408;-81
2021/09/24 07:18:41;;;;;;;8.70;6.83;;;14.60;99.90;;;;;;6145457;23;20412;-82
2021/09/24 07:21:08;;;;;;;6.33;5.50;;;14.60;99.90;;;;;;6144523;23;20432;-82
2021/09/24 07:23:34;;;;;;;6.10;5.50;;;14.80;99.90;;;;;;6144327;23;20479;-82
2021/09/24 07:26:01;;;;;;;5.30;4.60;;;14.90;99.90;;;;;;6143220;23;20489;-81
2021/09/24 07:28:28;;;;;;;6.60;6.00;;;14.90;99.90;;;;;;6145343;23;20487;-81
2021/09/24 07:30:55;;;;;;;6.47;5.97;;;15.10;99.90;;;;;;6144051;23;20465;-81
2021/09/24 07:33:23;;;;;;;7.60;6.90;;;15.10;99.90;;;;;;6144151;23;20522;-82
2021/09/24 07:35:50;;;;;;;7.00;6.30;;;15.30;99.90;;;;;;6143625;23;20413;-82
2021/09/24 07:38:18;;;;;;;8.53;6.10;;;15.40;99.90;;;;;;6142869;23;20400;-82
2021/09/24 07:40:46;;;;;;;6.47;5.87;;;15.60;99.90;;;;;;6143505;23;20437;-82
2021/09/24 07:43:14;;;;;;;6.30;5.67;;;15.70;99.90;;;;;;6143357;23;20410;-83
2021/09/24 07:45:40;;;;;;;7.23;6.63;;;15.60;99.90;;;;;;6142850;23;20412;-82
2021/09/24 07:48:07;;;;;;;7.47;6.77;;;15.70;99.90;;;;;;6142521;23;20562;-82
2021/09/24 07:50:35;;;;;;;6.13;5.63;;;15.70;99.90;;;;;;6142689;23;20516;-82
2021/09/24 07:53:02;;;;;;;7.70;6.70;;;15.70;99.90;;;;;;6143574;23;20468;-82
2021/09/24 07:55:29;;;;;;;7.00;5.97;;;15.80;99.90;;;;;;6142752;23;20412;-82
2021/09/24 07:57:56;;;;;;;7.00;6.30;;;16.00;99.90;;;;;;6143097;23;20496;-82
2021/09/24 08:00:25;;;;;;;7.03;6.33;;;15.90;99.90;;;;;;6143541;23;20429;-82
2021/09/24 08:02:54;;;;;;;5.90;5.50;;;16.00;99.90;;;;;;6143048;23;20496;-82
2021/09/24 08:05:21;;;;;;;6.33;5.73;;;16.10;99.90;;;;;;6142869;23;20439;-83
2021/09/24 08:07:49;;;;;;;6.23;5.63;;;16.20;99.90;;;;;;6142307;23;20449;-82
2021/09/24 08:10:16;;;;;;;6.87;6.17;;;16.30;99.90;;;;;;6142549;23;20452;-82
2021/09/24 08:12:43;;;;;;;6.40;5.80;;;16.40;99.90;;;;;;6142644;23;20437;-82
2021/09/24 08:15:11;;;;;;;8.00;7.30;;;16.40;99.90;;;;;;6142850;23;20417;-82
2021/09/24 08:17:39;;;;;;;8.87;6.77;;;16.40;99.90;;;;;;6143091;23;20413;-83
2021/09/24 08:20:07;;;;;;;7.90;7.30;;;16.50;99.90;;;;;;6143244;23;20426;-82
2021/09/24 08:22:38;;;;;;;6.23;5.70;;;16.70;99.90;;;;;;6143578;23;20490;-82
2021/09/24 08:25:07;;;;;;;7.17;6.57;;;16.70;99.90;;;;;;6143084;23;20815;-82
2021/09/24 08:27:35;;;;;;;6.17;5.70;;;16.90;99.90;;;;;;6143771;23;20478;-82
2021/09/24 08:30:02;;;;;;;6.47;5.90;;;16.90;99.90;;;;;;6143079;23;20450;-82
2021/09/24 08:32:29;;;;;;;6.07;5.57;;;17.10;99.90;;;;;;6143622;23;20446;-82
2021/09/24 08:34:56;;;;;;;5.90;5.30;;;17.20;99.90;;;;;;6141884;23;20419;-82
2021/09/24 08:37:22;;;;;;;6.67;6.07;;;17.30;99.90;;;;;;6145047;23;20451;-82
2021/09/24 08:39:49;;;;;;;8.83;5.83;;;17.30;99.90;;;;;;6149770;23;20438;-81
2021/09/24 11:56:36;;;;;;;3.60;3.30;;;30.20;61.90;;;;;;6096343;23;20349;-82
2021/09/24 12:16:02;;;;;;;3.77;3.47;;;31.00;55.50;;;;;;6063319;23;20394;-84
2021/09/24 12:18:57;;;;;;;4.70;4.30;;;31.00;55.90;;;;;;6096146;23;20941;-84
2021/09/24 12:22:17;;;;;;;3.63;3.33;;;31.10;56.20;;;;;;6094153;23;20451;-87
2021/09/24 12:24:46;;;;;;;3.83;3.53;;;31.50;54.60;;;;;;6095914;23;21125;-84
2021/09/24 12:30:46;;;;;;;4.67;4.37;;;31.30;54.10;;;;;;5989069;23;20521;-85
2021/09/24 12:33:16;;;;;;;4.20;3.90;;;31.00;54.90;;;;;;6095605;23;20425;-87
2021/09/24 12:35:57;;;;;;;4.00;3.70;;;31.10;55.20;;;;;;6096724;23;20399;-86
2021/09/24 12:38:28;;;;;;;4.10;3.70;;;31.00;54.90;;;;;;6095444;23;20405;-86
2021/09/24 12:41:10;;;;;;;3.83;3.53;;;31.10;53.30;;;;;;6095288;23;21037;-85
2021/09/24 12:44:15;;;;;;;4.33;4.10;;;31.50;54.30;;;;;;6120261;23;20464;-86
2021/09/24 12:47:18;;;;;;;4.53;4.07;;;31.90;53.20;;;;;;6124771;23;20743;-86
2021/09/24 12:54:14;;;;;;;;;;;;;;;;;;;;;
2021/09/24 12:56:48;;;;;;;4.83;4.47;;;32.80;51.70;;;;;;6031065;23;20506;-88
2021/09/24 12:59:16;;;;;;;4.90;4.50;;;32.40;51.50;;;;;;6127372;23;20444;-85
2021/09/24 13:01:43;;;;;;;3.97;3.77;;;32.40;50.80;;;;;;6129968;23;20454;-86
2021/09/24 13:04:10;;;;;;;4.67;4.27;;;32.20;51.00;;;;;;6133488;23;20415;-84
2021/09/24 13:06:40;;;;;;;4.30;4.00;;;32.40;51.20;;;;;;6134738;23;20419;-84
2021/09/24 13:09:08;;;;;;;5.00;4.70;;;32.10;50.70;;;;;;6135522;23;20794;-82
2021/09/24 13:11:36;;;;;;;5.30;4.90;;;32.40;50.60;;;;;;6133975;23;20511;-82
2021/09/24 13:14:11;;;;;;;5.73;5.33;;;32.70;50.50;;;;;;6129687;23;20926;-85
2021/09/24 13:16:39;;;;;;;4.73;4.33;;;32.80;50.00;;;;;;6133584;23;20458;-84
2021/09/24 13:19:05;;;;;;;4.50;4.20;;;32.50;50.50;;;;;;6137244;23;20424;-84
2021/09/24 13:21:33;;;;;;;5.37;4.33;;;32.60;50.80;;;;;;6136558;23;20539;-84
2021/09/24 13:24:01;;;;;;;4.63;4.23;;;32.70;50.10;;;;;;6134776;23;20433;-84
2021/09/24 13:26:29;;;;;;;4.40;4.10;;;32.90;49.00;;;;;;6127340;23;20422;-84
2021/09/24 13:29:11;;;;;;;4.80;4.50;;;33.20;50.40;;;;;;6132253;23;20803;-89
2021/09/24 13:38:02;;;;;;;5.20;4.80;;;33.40;49.30;;;;;;6126407;23;20491;-86
2021/09/24 13:40:29;;;;;;;4.70;4.40;;;33.30;48.70;;;;;;6134021;23;20448;-85
2021/09/24 13:46:19;;;;;;;3.80;3.60;;;32.30;49.80;;;;;;6120780;23;20406;-86
2021/09/24 13:48:47;;;;;;;4.10;3.77;;;31.10;51.10;;;;;;6126286;23;20491;-85
2021/09/24 13:51:14;;;;;;;5.27;4.87;;;30.60;51.50;;;;;;6126747;23;20479;-85
2021/09/24 13:53:41;;;;;;;4.70;4.33;;;30.20;52.30;;;;;;6126774;23;20411;-86
2021/09/24 13:56:08;;;;;;;9.03;5.03;;;30.30;53.30;;;;;;6125932;23;20415;-85
2021/09/24 13:58:35;;;;;;;4.57;4.20;;;30.10;53.00;;;;;;6126993;23;20415;-85
2021/09/24 14:01:02;;;;;;;4.40;4.10;;;29.70;53.60;;;;;;6126687;23;20454;-85
2021/09/24 14:03:30;;;;;;;4.53;4.17;;;29.60;53.90;;;;;;6126624;23;20414;-84
2021/09/24 14:05:57;;;;;;;4.30;4.00;;;29.20;53.90;;;;;;6126213;23;20907;-85
2021/09/24 14:08:24;;;;;;;4.37;4.07;;;28.40;54.30;;;;;;6126441;23;20437;-85
2021/09/24 14:10:51;;;;;;;4.63;4.33;;;28.30;55.70;;;;;;6126472;23;20441;-85
2021/09/24 14:13:20;;;;;;;4.00;3.70;;;28.30;56.40;;;;;;6128860;23;20421;-85
2021/09/24 14:15:47;;;;;;;5.37;4.87;;;28.20;55.80;;;;;;6130019;23;20413;-85
2021/09/24 14:18:14;;;;;;;4.60;4.20;;;27.60;57.30;;;;;;6129596;23;20419;-85
2021/09/24 14:20:42;;;;;;;4.37;4.07;;;27.40;57.00;;;;;;6129334;23;20460;-86
2021/09/24 14:23:09;;;;;;;3.60;3.40;;;27.00;56.60;;;;;;6128404;23;20419;-85
2021/09/24 14:25:36;;;;;;;5.63;5.23;;;26.50;57.50;;;;;;6128614;23;20482;-85
2021/09/24 14:28:04;;;;;;;4.30;4.00;;;26.40;58.90;;;;;;6129228;23;20461;-85
2021/09/24 14:30:30;;;;;;;6.43;5.90;;;26.20;58.50;;;;;;6127566;23;20524;-86
2021/09/24 14:32:57;;;;;;;5.40;5.00;;;25.90;59.70;;;;;;6127033;23;20399;-85
2021/09/24 14:35:24;;;;;;;4.50;4.20;;;25.70;59.80;;;;;;6126772;23;20744;-85
2021/09/24 14:37:53;;;;;;;4.63;4.27;;;25.70;60.50;;;;;;6126039;23;20412;-87
2021/09/24 14:40:22;;;;;;;4.80;4.40;;;25.70;59.40;;;;;;6126510;23;20499;-85
2021/09/24 14:42:50;;;;;;;4.20;3.70;;;25.60;60.20;;;;;;6132411;23;20468;-83
2021/09/24 14:45:17;;;;;;;4.23;3.93;;;25.50;59.70;;;;;;6170327;23;20431;-82
2021/09/24 14:47:44;;;;;;;3.50;3.30;;;25.60;60.40;;;;;;6161079;23;20708;-83
2021/09/24 14:50:12;;;;;;;3.80;3.50;;;25.50;61.20;;;;;;6169711;23;20741;-82
2021/09/24 14:52:46;;;;;;;5.00;4.60;;;25.30;61.40;;;;;;6148288;23;20445;-86
2021/09/24 14:55:14;;;;;;;4.33;3.90;;;25.20;61.90;;;;;;6132812;23;20397;-85
2021/09/24 14:57:41;;;;;;;4.43;4.13;;;25.20;62.60;;;;;;6127449;23;20413;-83
2021/09/24 15:00:10;;;;;;;4.03;3.73;;;25.10;62.00;;;;;;6134679;23;20407;-83
2021/09/24 15:02:38;;;;;;;8.00;4.50;;;25.10;62.20;;;;;;6134962;23;20757;-85
2021/09/24 15:05:06;;;;;;;4.40;4.10;;;25.10;62.30;;;;;;6128505;23;20422;-84
2021/09/24 15:07:34;;;;;;;3.80;3.50;;;25.00;62.90;;;;;;6128889;23;20409;-85
2021/09/24 15:10:02;;;;;;;4.53;4.23;;;25.10;63.70;;;;;;6129859;23;20426;-85
2021/09/24 15:12:30;;;;;;;4.70;4.40;;;25.10;63.30;;;;;;6131361;23;20504;-83
2021/09/24 15:14:57;;;;;;;4.33;3.93;;;25.00;63.30;;;;;;6132092;23;20419;-85
2021/09/24 15:17:23;;;;;;;4.23;3.93;;;25.10;63.00;;;;;;6128682;23;20413;-84
2021/09/24 15:19:50;;;;;;;4.93;3.70;;;25.10;61.70;;;;;;6129340;23;20420;-82
2021/09/24 15:22:17;;;;;;;5.50;5.00;;;25.00;63.10;;;;;;6128507;23;20456;-84
2021/09/24 15:24:44;;;;;;;4.00;3.70;;;25.00;62.50;;;;;;6125979;23;20408;-82
2021/09/24 15:27:11;;;;;;;4.30;4.00;;;24.90;63.90;;;;;;6129398;23;20424;-83
2021/09/24 15:29:39;;;;;;;6.10;5.70;;;24.40;69.50;;;;;;6126154;23;20407;-82
2021/09/24 15:32:06;;;;;;;5.20;4.80;;;24.10;71.60;;;;;;6130586;23;20932;-84
2021/09/24 15:34:33;;;;;;;6.73;5.90;;;23.90;73.40;;;;;;6131084;23;20423;-83
2021/09/24 15:37:00;;;;;;;5.40;4.90;;;23.60;74.00;;;;;;6131775;23;20414;-84
2021/09/24 15:39:26;;;;;;;4.93;4.50;;;23.40;76.00;;;;;;6134087;23;20439;-83
2021/09/24 15:41:54;;;;;;;7.93;5.30;;;23.20;76.20;;;;;;6126021;23;20455;-84
2021/09/24 15:44:20;;;;;;;5.53;5.13;;;23.00;77.10;;;;;;6125931;23;20404;-82
2021/09/24 15:46:49;;;;;;;5.13;4.67;;;22.80;78.80;;;;;;6127005;23;20697;-84
2021/09/24 15:49:16;;;;;;;6.07;5.63;;;22.50;79.50;;;;;;6126809;23;20414;-83
2021/09/24 15:51:44;;;;;;;5.73;5.23;;;22.30;80.90;;;;;;6130878;23;20419;-83
2021/09/24 15:54:11;;;;;;;7.23;6.10;;;22.20;82.40;;;;;;6126037;23;20465;-82
2021/09/24 15:56:38;;;;;;;4.83;4.53;;;22.20;81.60;;;;;;6129946;23;20897;-84
2021/09/24 15:59:05;;;;;;;5.47;4.97;;;22.20;82.60;;;;;;6125696;23;20906;-84
2021/09/24 16:01:32;;;;;;;7.63;5.77;;;22.00;83.00;;;;;;6128727;23;20460;-83
2021/09/24 16:04:00;;;;;;;5.03;4.63;;;22.00;83.90;;;;;;6135423;23;20410;-84
2021/09/24 16:06:27;;;;;;;6.47;5.97;;;21.90;84.20;;;;;;6130264;23;20447;-83
2021/09/24 16:08:54;;;;;;;6.67;6.00;;;21.90;84.70;;;;;;6127561;23;20523;-85
2021/09/24 16:11:21;;;;;;;6.03;5.60;;;21.80;84.20;;;;;;6127018;23;20437;-84
2021/09/24 16:13:48;;;;;;;5.60;5.20;;;21.70;85.40;;;;;;6130972;23;20421;-85
2021/09/24 16:16:15;;;;;;;5.83;5.33;;;21.80;85.40;;;;;;6129744;23;20421;-82
2021/09/24 16:18:42;;;;;;;5.80;5.30;;;21.70;85.60;;;;;;6125780;23;20418;-83
2021/09/24 16:21:16;;;;;;;6.70;6.10;;;21.60;86.20;;;;;;6124526;23;20949;-87
2021/09/24 16:23:43;;;;;;;5.87;5.33;;;21.60;86.80;;;;;;6127751;23;20418;-82
2021/09/24 16:26:10;;;;;;;6.10;5.60;;;21.70;86.80;;;;;;6127868;23;20409;-82
2021/09/24 16:28:37;;;;;;;5.83;5.43;;;21.60;87.00;;;;;;6129612;23;20414;-82
2021/09/24 16:31:04;;;;;;;5.77;5.37;;;21.50;87.00;;;;;;6129090;23;20429;-82
2021/09/24 16:33:30;;;;;;;5.40;5.10;;;21.40;88.00;;;;;;6129806;23;20413;-83
2021/09/24 16:35:58;;;;;;;5.97;5.47;;;21.30;88.10;;;;;;6128411;23;20411;-81
2021/09/24 16:38:26;;;;;;;6.97;6.37;;;21.20;88.30;;;;;;6126961;23;20413;-82
2021/09/24 16:40:54;;;;;;;5.80;5.30;;;21.10;88.90;;;;;;6126613;23;20892;-82
2021/09/24 16:43:21;;;;;;;6.93;6.33;;;21.00;89.30;;;;;;6126585;23;20460;-82
2021/09/24 16:45:48;;;;;;;6.30;5.80;;;21.00;89.60;;;;;;6125718;23;20414;-83
2021/09/24 16:48:15;;;;;;;5.90;5.30;;;21.00;89.50;;;;;;6126978;23;20413;-82
2021/09/24 16:50:42;;;;;;;6.63;5.90;;;21.00;89.80;;;;;;6130287;23;20896;-82
2021/09/24 16:53:08;;;;;;;5.53;5.13;;;20.80;90.00;;;;;;6127384;23;20409;-82
2021/09/24 16:55:37;;;;;;;4.87;4.50;;;20.60;90.40;;;;;;6131514;23;20408;-85
2021/09/24 16:58:04;;;;;;;6.70;6.20;;;20.50;90.60;;;;;;6138246;23;20422;-83
2021/09/24 17:00:33;;;;;;;6.17;5.60;;;20.50;90.90;;;;;;6130448;23;20413;-82
2021/09/24 17:02:59;;;;;;;5.70;5.20;;;20.40;91.00;;;;;;6127835;23;20447;-82
2021/09/24 17:05:26;;;;;;;5.60;5.10;;;20.40;91.10;;;;;;6128836;23;20420;-82
2021/09/24 17:07:54;;;;;;;6.77;6.13;;;20.50;91.10;;;;;;6136156;23;20411;-82
2021/09/24 17:10:21;;;;;;;6.43;5.83;;;20.40;91.10;;;;;;6137289;23;20423;-81
2021/09/24 17:12:50;;;;;;;5.73;5.33;;;20.30;91.20;;;;;;6135680;23;20438;-81
2021/09/24 17:15:18;;;;;;;7.10;5.50;;;20.20;91.50;;;;;;6133543;23;20412;-81
2021/09/24 17:17:45;;;;;;;7.83;6.40;;;20.10;91.70;;;;;;6130988;23;20462;-83
2021/09/24 17:20:14;;;;;;;6.47;5.97;;;20.10;91.80;;;;;;6134058;23;20416;-82
2021/09/24 17:22:41;;;;;;;5.63;5.23;;;19.80;92.20;;;;;;6131812;23;20447;-83
2021/09/24 17:25:10;;;;;;;6.00;5.50;;;19.70;92.40;;;;;;6131179;23;20414;-86
2021/09/24 17:27:37;;;;;;;6.20;5.70;;;19.60;92.70;;;;;;6132870;23;20454;-86
2021/09/24 17:30:08;;;;;;;6.23;5.23;;;19.50;92.90;;;;;;6136257;23;20412;-85
2021/09/24 17:32:35;;;;;;;6.17;5.67;;;19.60;93.10;;;;;;6132048;23;20436;-85
2021/09/24 17:35:02;;;;;;;6.70;6.10;;;19.40;93.30;;;;;;6134598;23;20442;-86
2021/09/24 17:37:29;;;;;;;6.37;5.87;;;19.40;93.40;;;;;;6135973;23;20743;-86
2021/09/24 17:39:56;;;;;;;5.60;5.10;;;19.30;93.60;;;;;;6136200;23;20425;-86
2021/09/24 17:42:25;;;;;;;6.40;5.90;;;19.20;93.70;;;;;;6133732;23;20489;-84
2021/09/24 17:44:51;;;;;;;6.67;6.17;;;19.10;94.00;;;;;;6135819;23;20792;-86
2021/09/24 17:47:20;;;;;;;5.60;5.07;;;19.10;94.20;;;;;;6136526;23;20937;-87
2021/09/24 17:49:46;;;;;;;5.30;4.87;;;19.00;94.40;;;;;;6137828;23;20449;-86
2021/09/24 17:52:13;;;;;;;5.80;5.30;;;19.00;94.60;;;;;;6135918;23;20525;-85
2021/09/24 17:54:40;;;;;;;6.30;5.70;;;18.90;94.60;;;;;;6143076;23;20449;-87
2021/09/24 17:57:07;;;;;;;5.63;5.10;;;18.80;94.70;;;;;;6135485;23;20484;-86
2021/09/24 17:59:34;;;;;;;6.23;5.73;;;18.80;95.10;;;;;;6134095;23;20422;-86
2021/09/24 18:02:01;;;;;;;8.00;7.20;;;18.70;95.20;;;;;;6133074;23;20783;-86
2021/09/24 18:04:30;;;;;;;5.70;5.30;;;18.60;95.50;;;;;;6132153;23;20415;-87
2021/09/24 18:06:56;;;;;;;5.77;5.27;;;18.50;95.60;;;;;;6130926;23;20406;-87
2021/09/24 18:09:23;;;;;;;5.93;5.30;;;18.40;95.90;;;;;;6131028;23;20415;-87
2021/09/24 18:11:50;;;;;;;6.60;6.10;;;18.40;96.10;;;;;;6132892;23;20563;-88
2021/09/24 18:14:17;;;;;;;9.50;5.60;;;18.30;96.30;;;;;;6140429;23;20432;-86
2021/09/24 18:16:47;;;;;;;6.53;5.90;;;18.20;96.40;;;;;;6134009;23;20412;-86
2021/09/24 18:19:14;;;;;;;6.27;5.73;;;18.10;96.80;;;;;;6135009;23;20438;-85
2021/09/24 18:21:42;;;;;;;5.83;5.33;;;18.10;97.10;;;;;;6134752;23;20509;-86
2021/09/24 18:24:09;;;;;;;5.77;5.30;;;18.00;97.30;;;;;;6136228;23;20417;-87
2021/09/24 18:26:36;;;;;;;6.97;6.00;;;17.90;97.60;;;;;;6138070;23;20415;-85
2021/09/24 18:29:03;;;;;;;6.30;5.87;;;17.80;97.90;;;;;;6138804;23;20457;-86
2021/09/24 18:31:30;;;;;;;6.37;5.97;;;17.70;98.10;;;;;;6139185;23;20768;-84
2021/09/24 18:33:57;;;;;;;6.67;6.07;;;17.60;98.30;;;;;;6141097;23;20411;-86
2021/09/24 18:36:23;;;;;;;7.27;6.17;;;17.60;98.70;;;;;;6138557;23;20418;-85
2021/09/24 18:38:52;;;;;;;10.63;9.63;;;17.50;98.90;;;;;;6139861;23;20411;-85
2021/09/24 18:41:18;;;;;;;11.13;9.10;;;17.50;99.10;;;;;;6143806;23;20441;-85
2021/09/24 18:43:45;;;;;;;9.70;8.80;;;17.40;99.80;;;;;;6143924;23;20461;-87
2021/09/24 18:46:12;;;;;;;9.37;8.57;;;17.30;99.90;;;;;;6145092;23;20415;-86
2021/09/24 18:48:39;;;;;;;8.20;7.50;;;17.30;99.90;;;;;;6143923;23;20417;-84
2021/09/24 18:51:05;;;;;;;8.13;7.40;;;17.20;99.90;;;;;;6145035;23;20438;-86
2021/09/24 18:53:32;;;;;;;10.13;9.23;;;17.10;99.90;;;;;;6144425;23;20415;-86
2021/09/24 18:56:00;;;;;;;8.70;7.90;;;17.10;99.90;;;;;;6145747;23;20411;-85
2021/09/24 18:58:27;;;;;;;10.83;8.60;;;17.00;99.90;;;;;;6145027;23;20485;-85
2021/09/24 19:00:54;;;;;;;10.63;9.53;;;17.00;99.90;;;;;;6147699;23;20477;-85
2021/09/24 19:03:21;;;;;;;9.77;8.87;;;16.90;99.90;;;;;;6151622;23;20517;-82
2021/09/24 19:05:47;;;;;;;9.83;8.83;;;16.80;99.90;;;;;;6150263;23;20927;-85
2021/09/24 19:08:14;;;;;;;11.53;10.33;;;16.80;99.90;;;;;;6145483;23;20409;-85
2021/09/24 19:10:41;;;;;;;10.97;9.87;;;16.70;99.90;;;;;;6145508;23;20399;-85
2021/09/24 19:13:09;;;;;;;11.73;10.70;;;16.60;99.90;;;;;;6145876;23;20438;-85
2021/09/24 19:15:36;;;;;;;11.70;8.67;;;16.40;99.90;;;;;;6145689;23;20405;-85
2021/09/24 19:18:03;;;;;;;11.00;10.00;;;16.30;99.90;;;;;;6145970;23;20410;-84
2021/09/24 19:20:31;;;;;;;11.30;10.20;;;16.20;99.90;;;;;;6145249;23;20924;-85
2021/09/24 19:22:58;;;;;;;10.33;9.33;;;16.20;99.90;;;;;;6141323;23;20456;-85
2021/09/24 19:25:25;;;;;;;12.17;11.07;;;16.20;99.90;;;;;;6131943;23;20500;-87
2021/09/24 19:27:51;;;;;;;10.97;9.97;;;16.10;99.90;;;;;;6131723;23;20505;-86
2021/09/24 19:30:20;;;;;;;10.87;9.97;;;16.00;99.90;;;;;;6131672;23;20448;-87
2021/09/24 19:32:47;;;;;;;9.87;8.83;;;16.00;99.90;;;;;;6134823;23;20485;-86
2021/09/24 19:35:14;;;;;;;10.30;9.40;;;16.00;99.90;;;;;;6134773;23;20420;-86
2021/09/24 19:37:42;;;;;;;9.03;8.13;;;15.90;99.90;;;;;;6131620;23;20413;-86
2021/09/24 19:40:10;;;;;;;10.53;9.70;;;15.90;99.90;;;;;;6132380;23;20421;-86
2021/09/24 19:42:37;;;;;;;11.20;10.10;;;15.90;99.90;;;;;;6131268;23;20444;-84